createdAt,value
2019-05-20T00:00:00.749Z,998.94
2019-05-20T00:01:00.738Z,998.94
2019-05-20T00:02:00.726Z,998.88
2019-05-20T00:03:00.739Z,998.92
2019-05-20T00:04:00.704Z,998.92
2019-05-20T00:05:00.739Z,998.87
2019-05-20T00:06:00.683Z,998.89
2019-05-20T00:07:00.712Z,998.89
2019-05-20T00:08:00.686Z,998.89
2019-05-20T00:09:00.654Z,998.96
2019-05-20T00:10:00.637Z,998.93
2019-05-20T00:11:00.649Z,998.94
2019-05-20T00:12:00.615Z,998.91
2019-05-20T00:13:00.632Z,998.92
2019-05-20T00:14:00.591Z,998.90
2019-05-20T00:15:00.612Z,998.91
2019-05-20T00:16:00.567Z,998.95
2019-05-20T00:17:00.565Z,998.90
2019-05-20T00:18:00.545Z,998.84
2019-05-20T00:19:00.557Z,998.86
2019-05-20T00:20:00.544Z,998.87
2019-05-20T00:21:00.511Z,998.83
2019-05-20T00:22:00.500Z,998.87
2019-05-20T00:23:00.491Z,998.88
2019-05-20T00:24:00.501Z,998.88
2019-05-20T00:25:00.464Z,998.85
2019-05-20T00:26:00.453Z,998.86
2019-05-20T00:27:00.443Z,998.82
2019-05-20T00:28:00.434Z,998.85
2019-05-20T00:29:00.445Z,998.85
2019-05-20T00:30:00.409Z,998.86
2019-05-20T00:31:00.397Z,998.89
2019-05-20T00:32:00.385Z,998.90
2019-05-20T00:33:00.375Z,998.89
2019-05-20T00:34:00.388Z,998.90
2019-05-20T00:35:00.356Z,998.87
2019-05-20T00:36:00.341Z,998.94
2019-05-20T00:37:00.330Z,998.90
2019-05-20T00:38:00.328Z,998.93
2019-05-20T00:39:00.332Z,998.90
2019-05-20T00:40:00.295Z,998.95
2019-05-20T00:41:00.285Z,998.94
2019-05-20T00:42:00.272Z,998.93
2019-05-20T00:43:00.261Z,998.94
2019-05-20T00:44:00.276Z,998.89
2019-05-20T00:45:00.241Z,998.90
2019-05-20T00:46:00.227Z,998.87
2019-05-20T00:47:00.216Z,998.94
2019-05-20T00:48:00.204Z,998.92
2019-05-20T00:49:00.218Z,998.95
2019-05-20T00:50:00.182Z,998.98
2019-05-20T00:51:00.170Z,998.92
2019-05-20T00:52:00.158Z,998.98
2019-05-20T00:53:00.150Z,998.94
2019-05-20T00:54:00.164Z,998.96
2019-05-20T00:55:00.126Z,998.99
2019-05-20T00:56:00.114Z,998.97
2019-05-20T00:57:00.106Z,998.95
2019-05-20T00:58:00.098Z,998.97
2019-05-20T00:59:00.107Z,998.94
2019-05-20T01:00:00.073Z,998.96
2019-05-20T01:01:00.066Z,999.01
2019-05-20T01:02:00.046Z,999.00
2019-05-20T01:03:00.034Z,999.02
2019-05-20T01:04:00.048Z,999.02
2019-05-20T01:05:00.017Z,999.10
2019-05-20T01:06:00.002Z,999.11
2019-05-20T01:06:59.989Z,999.09
2019-05-20T01:07:59.979Z,999.09
2019-05-20T01:08:59.991Z,999.14
2019-05-20T01:09:59.962Z,999.14
2019-05-20T01:10:59.943Z,999.17
2019-05-20T01:11:59.934Z,999.15
2019-05-20T01:12:59.937Z,999.14
2019-05-20T01:13:59.937Z,999.16
2019-05-20T01:14:59.903Z,999.18
2019-05-20T01:15:59.887Z,999.16
2019-05-20T01:16:59.875Z,999.17
2019-05-20T01:17:59.866Z,999.16
2019-05-20T01:18:59.879Z,999.13
2019-05-20T01:19:59.843Z,999.15
2019-05-20T01:20:59.831Z,999.12
2019-05-20T01:21:59.823Z,999.13
2019-05-20T01:22:59.808Z,999.15
2019-05-20T01:23:59.799Z,999.14
2019-05-20T01:24:59.814Z,999.16
2019-05-20T01:25:59.775Z,999.15
2019-05-20T01:26:59.764Z,999.17
2019-05-20T01:27:59.751Z,999.13
2019-05-20T01:28:59.779Z,999.11
2019-05-20T01:29:59.757Z,999.11
2019-05-20T01:30:59.723Z,999.14
2019-05-20T01:31:59.705Z,999.08
2019-05-20T01:33:12.688Z,999.06
2019-05-20T01:34:00.682Z,999.06
2019-05-20T01:34:59.697Z,999.08
2019-05-20T01:35:59.661Z,999.08
2019-05-20T01:36:59.650Z,999.06
2019-05-20T01:37:59.639Z,999.06
2019-05-20T01:38:59.628Z,999.06
2019-05-20T01:39:59.641Z,999.07
2019-05-20T01:40:59.606Z,999.10
2019-05-20T01:41:59.594Z,999.03
2019-05-20T01:42:59.581Z,999.01
2019-05-20T01:43:59.573Z,999.04
2019-05-20T01:44:59.584Z,999.00
2019-05-20T01:45:59.549Z,999.02
2019-05-20T01:46:59.536Z,999.02
2019-05-20T01:47:59.529Z,998.98
2019-05-20T01:48:59.539Z,999.00
2019-05-20T01:49:59.527Z,998.96
2019-05-20T01:50:59.493Z,999.01
2019-05-20T01:51:59.531Z,998.99
2019-05-20T01:52:59.469Z,999.04
2019-05-20T01:53:59.458Z,999.06
2019-05-20T01:54:59.471Z,999.06
2019-05-20T01:55:59.434Z,999.08
2019-05-20T01:56:59.427Z,999.05
2019-05-20T01:57:59.420Z,999.06
2019-05-20T01:58:59.400Z,999.08
2019-05-20T01:59:59.414Z,999.07
2019-05-20T02:00:59.378Z,999.06
2019-05-20T02:01:59.370Z,999.08
2019-05-20T02:02:59.355Z,999.08
2019-05-20T02:03:59.348Z,999.12
2019-05-20T02:04:59.337Z,999.15
2019-05-20T02:05:59.347Z,999.14
2019-05-20T02:06:59.310Z,999.13
2019-05-20T02:07:59.310Z,999.13
2019-05-20T02:08:59.288Z,999.14
2019-05-20T02:09:59.278Z,999.15
2019-05-20T02:10:59.291Z,999.14
2019-05-20T02:11:59.255Z,999.13
2019-05-20T02:12:59.241Z,999.13
2019-05-20T02:13:59.231Z,999.15
2019-05-20T02:14:59.225Z,999.13
2019-05-20T02:15:59.233Z,999.16
2019-05-20T02:17:02.529Z,999.15
2019-05-20T02:17:59.185Z,999.19
2019-05-20T02:18:59.174Z,999.16
2019-05-20T02:19:59.168Z,999.14
2019-05-20T02:20:59.179Z,999.17
2019-05-20T02:21:59.143Z,999.12
2019-05-20T02:22:59.131Z,999.16
2019-05-20T02:23:59.125Z,999.15
2019-05-20T02:24:59.124Z,999.17
2019-05-20T02:25:59.119Z,999.14
2019-05-20T02:26:59.083Z,999.20
2019-05-20T02:27:59.071Z,999.22
2019-05-20T02:28:59.061Z,999.16
2019-05-20T02:29:59.050Z,999.17
2019-05-20T02:30:59.065Z,999.18
2019-05-20T02:31:59.030Z,999.15
2019-05-20T02:32:59.019Z,999.16
2019-05-20T02:33:59.005Z,999.11
2019-05-20T02:34:58.994Z,999.14
2019-05-20T02:35:59.008Z,999.13
2019-05-20T02:36:58.974Z,999.17
2019-05-20T02:37:58.960Z,999.18
2019-05-20T02:38:58.948Z,999.15
2019-05-20T02:39:58.940Z,999.19
2019-05-20T02:40:58.953Z,999.18
2019-05-20T02:41:58.915Z,999.14
2019-05-20T02:42:58.951Z,999.19
2019-05-20T02:43:58.891Z,999.16
2019-05-20T02:44:58.881Z,999.19
2019-05-20T02:45:58.893Z,999.20
2019-05-20T02:46:58.867Z,999.23
2019-05-20T02:47:58.847Z,999.22
2019-05-20T02:48:58.834Z,999.23
2019-05-20T02:49:58.824Z,999.22
2019-05-20T02:50:58.840Z,999.20
2019-05-20T02:51:58.801Z,999.27
2019-05-20T02:52:58.790Z,999.26
2019-05-20T02:53:58.784Z,999.29
2019-05-20T02:54:58.769Z,999.26
2019-05-20T02:55:58.758Z,999.30
2019-05-20T02:56:58.770Z,999.26
2019-05-20T02:57:58.733Z,999.24
2019-05-20T02:58:58.722Z,999.23
2019-05-20T02:59:58.718Z,999.26
2019-05-20T03:00:58.706Z,999.26
2019-05-20T03:01:58.715Z,999.32
2019-05-20T03:02:58.677Z,999.29
2019-05-20T03:04:10.603Z,999.36
2019-05-20T03:04:59.653Z,999.33
2019-05-20T03:05:58.643Z,999.31
2019-05-20T03:06:58.658Z,999.35
2019-05-20T03:07:58.625Z,999.39
2019-05-20T03:08:58.613Z,999.40
2019-05-20T03:09:58.597Z,999.43
2019-05-20T03:10:58.586Z,999.47
2019-05-20T03:11:58.599Z,999.47
2019-05-20T03:12:58.569Z,999.45
2019-05-20T03:13:58.552Z,999.40
2019-05-20T03:14:58.542Z,999.40
2019-05-20T03:15:58.533Z,999.44
2019-05-20T03:16:58.544Z,999.44
2019-05-20T03:17:58.510Z,999.48
2019-05-20T03:18:58.497Z,999.46
2019-05-20T03:19:58.484Z,999.48
2019-05-20T03:20:58.473Z,999.42
2019-05-20T03:21:58.488Z,999.48
2019-05-20T03:22:58.455Z,999.43
2019-05-20T03:23:58.444Z,999.42
2019-05-20T03:24:58.427Z,999.41
2019-05-20T03:25:58.427Z,999.38
2019-05-20T03:26:58.430Z,999.42
2019-05-20T03:27:58.398Z,999.34
2019-05-20T03:28:58.381Z,999.38
2019-05-20T03:29:58.372Z,999.42
2019-05-20T03:30:58.364Z,999.40
2019-05-20T03:31:58.374Z,999.41
2019-05-20T03:32:58.339Z,999.43
2019-05-20T03:33:58.330Z,999.44
2019-05-20T03:35:00.674Z,999.48
2019-05-20T03:35:58.320Z,999.43
2019-05-20T03:36:58.318Z,999.42
2019-05-20T03:37:58.284Z,999.42
2019-05-20T03:38:58.269Z,999.42
2019-05-20T03:39:58.261Z,999.43
2019-05-20T03:40:58.249Z,999.41
2019-05-20T03:41:58.265Z,999.40
2019-05-20T03:42:58.226Z,999.36
2019-05-20T03:43:58.223Z,999.43
2019-05-20T03:44:58.203Z,999.41
2019-05-20T03:45:58.190Z,999.38
2019-05-20T03:46:58.205Z,999.40
2019-05-20T03:47:58.191Z,999.40
2019-05-20T03:48:58.160Z,999.34
2019-05-20T03:49:58.147Z,999.30
2019-05-20T03:50:58.139Z,999.28
2019-05-20T03:51:58.146Z,999.27
2019-05-20T03:52:58.113Z,999.26
2019-05-20T03:53:58.099Z,999.28
2019-05-20T03:54:58.091Z,999.31
2019-05-20T03:55:58.078Z,999.29
2019-05-20T03:56:58.069Z,999.33
2019-05-20T03:57:58.083Z,999.28
2019-05-20T03:58:58.056Z,999.29
2019-05-20T03:59:58.031Z,999.28
2019-05-20T04:00:58.024Z,999.31
2019-05-20T04:01:58.017Z,999.27
2019-05-20T04:02:58.023Z,999.28
2019-05-20T04:03:57.993Z,999.29
2019-05-20T04:05:01.896Z,999.27
2019-05-20T04:05:58.964Z,999.30
2019-05-20T04:06:57.965Z,999.29
2019-05-20T04:07:57.968Z,999.27
2019-05-20T04:08:57.940Z,999.35
2019-05-20T04:09:57.921Z,999.34
2019-05-20T04:10:57.912Z,999.34
2019-05-20T04:11:57.897Z,999.32
2019-05-20T04:12:57.911Z,999.37
2019-05-20T04:13:57.887Z,999.38
2019-05-20T04:14:57.863Z,999.40
2019-05-20T04:15:57.852Z,999.42
2019-05-20T04:16:57.843Z,999.44
2019-05-20T04:17:57.853Z,999.46
2019-05-20T04:18:57.819Z,999.45
2019-05-20T04:19:57.814Z,999.48
2019-05-20T04:20:57.841Z,999.52
2019-05-20T04:21:57.790Z,999.53
2019-05-20T04:22:57.798Z,999.59
2019-05-20T04:24:00.959Z,999.58
2019-05-20T04:24:57.751Z,999.60
2019-05-20T04:25:57.743Z,999.60
2019-05-20T04:26:57.728Z,999.60
2019-05-20T04:27:57.742Z,999.60
2019-05-20T04:28:57.707Z,999.62
2019-05-20T04:29:57.695Z,999.65
2019-05-20T04:30:57.688Z,999.62
2019-05-20T04:31:57.670Z,999.60
2019-05-20T04:32:57.701Z,999.62
2019-05-20T04:33:57.648Z,999.63
2019-05-20T04:34:57.714Z,999.67
2019-05-20T04:35:57.627Z,999.64
2019-05-20T04:36:57.614Z,999.65
2019-05-20T04:37:57.630Z,999.68
2019-05-20T04:38:57.596Z,999.70
2019-05-20T04:39:57.579Z,999.66
2019-05-20T04:40:57.568Z,999.72
2019-05-20T04:41:57.560Z,999.70
2019-05-20T04:42:57.572Z,999.73
2019-05-20T04:43:57.535Z,999.68
2019-05-20T04:44:57.526Z,999.70
2019-05-20T04:45:57.517Z,999.70
2019-05-20T04:46:58.121Z,999.70
2019-05-20T04:47:57.495Z,999.67
2019-05-20T04:48:57.511Z,999.70
2019-05-20T04:49:57.468Z,999.66
2019-05-20T04:50:57.468Z,999.68
2019-05-20T04:51:57.443Z,999.63
2019-05-20T04:52:57.444Z,999.62
2019-05-20T04:53:57.446Z,999.62
2019-05-20T04:54:57.410Z,999.61
2019-05-20T04:55:57.407Z,999.60
2019-05-20T04:56:57.388Z,999.56
2019-05-20T04:57:57.386Z,999.57
2019-05-20T04:58:57.398Z,999.57
2019-05-20T04:59:57.354Z,999.57
2019-05-20T05:00:57.367Z,999.57
2019-05-20T05:01:57.336Z,999.59
2019-05-20T05:02:57.321Z,999.55
2019-05-20T05:03:57.335Z,999.52
2019-05-20T05:04:57.299Z,999.53
2019-05-20T05:05:57.376Z,999.52
2019-05-20T05:06:57.277Z,999.56
2019-05-20T05:07:57.262Z,999.52
2019-05-20T05:08:57.278Z,999.58
2019-05-20T05:09:57.241Z,999.58
2019-05-20T05:10:57.233Z,999.59
2019-05-20T05:11:57.218Z,999.57
2019-05-20T05:12:57.208Z,999.58
2019-05-20T05:13:57.224Z,999.60
2019-05-20T05:14:57.208Z,999.59
2019-05-20T05:15:57.171Z,999.61
2019-05-20T05:16:57.161Z,999.64
2019-05-20T05:17:57.150Z,999.57
2019-05-20T05:18:57.166Z,999.59
2019-05-20T05:19:57.164Z,999.55
2019-05-20T05:20:57.116Z,999.57
2019-05-20T05:21:57.105Z,999.57
2019-05-20T05:22:57.095Z,999.56
2019-05-20T05:23:59.490Z,999.53
2019-05-20T05:24:57.071Z,999.53
2019-05-20T05:25:57.061Z,999.56
2019-05-20T05:26:57.050Z,999.58
2019-05-20T05:27:57.037Z,999.54
2019-05-20T05:28:57.050Z,999.50
2019-05-20T05:29:57.013Z,999.53
2019-05-20T05:30:57.009Z,999.52
2019-05-20T05:31:56.994Z,999.56
2019-05-20T05:32:56.981Z,999.52
2019-05-20T05:33:56.994Z,999.55
2019-05-20T05:34:56.959Z,999.53
2019-05-20T05:35:56.947Z,999.50
2019-05-20T05:36:56.934Z,999.53
2019-05-20T05:37:56.965Z,999.49
2019-05-20T05:38:56.915Z,999.47
2019-05-20T05:39:56.939Z,999.47
2019-05-20T05:40:56.891Z,999.46
2019-05-20T05:41:56.880Z,999.51
2019-05-20T05:42:56.867Z,999.53
2019-05-20T05:43:56.859Z,999.49
2019-05-20T05:44:56.875Z,999.55
2019-05-20T05:45:56.832Z,999.51
2019-05-20T05:46:56.823Z,999.57
2019-05-20T05:47:56.812Z,999.53
2019-05-20T05:48:56.800Z,999.50
2019-05-20T05:49:56.817Z,999.48
2019-05-20T05:50:56.776Z,999.56
2019-05-20T05:51:56.765Z,999.56
2019-05-20T05:52:56.800Z,999.52
2019-05-20T05:53:56.742Z,999.55
2019-05-20T05:54:56.760Z,999.57
2019-05-20T05:55:56.719Z,999.56
2019-05-20T05:56:56.709Z,999.65
2019-05-20T05:57:56.697Z,999.66
2019-05-20T05:58:56.690Z,999.70
2019-05-20T05:59:56.699Z,999.72
2019-05-20T06:00:56.663Z,999.73
2019-05-20T06:01:56.652Z,999.72
2019-05-20T06:02:56.645Z,999.76
2019-05-20T06:03:56.631Z,999.76
2019-05-20T06:04:56.643Z,999.74
2019-05-20T06:06:10.612Z,999.79
2019-05-20T06:06:57.595Z,999.76
2019-05-20T06:07:56.586Z,999.72
2019-05-20T06:08:56.574Z,999.72
2019-05-20T06:09:56.591Z,999.76
2019-05-20T06:10:56.551Z,999.76
2019-05-20T06:11:56.540Z,999.80
2019-05-20T06:12:56.532Z,999.76
2019-05-20T06:13:56.520Z,999.79
2019-05-20T06:14:56.549Z,999.82
2019-05-20T06:15:56.494Z,999.81
2019-05-20T06:16:56.482Z,999.90
2019-05-20T06:17:56.472Z,999.88
2019-05-20T06:18:56.459Z,999.88
2019-05-20T06:19:56.475Z,999.87
2019-05-20T06:20:56.439Z,999.89
2019-05-20T06:21:56.426Z,999.87
2019-05-20T06:22:56.420Z,999.85
2019-05-20T06:23:56.413Z,999.90
2019-05-20T06:24:56.424Z,999.90
2019-05-20T06:25:56.382Z,999.86
2019-05-20T06:26:56.375Z,999.86
2019-05-20T06:27:56.364Z,999.90
2019-05-20T06:28:56.345Z,999.89
2019-05-20T06:29:56.336Z,999.95
2019-05-20T06:30:56.352Z,999.95
2019-05-20T06:31:56.317Z,999.99
2019-05-20T06:32:56.303Z,1000.04
2019-05-20T06:33:56.291Z,1000.03
2019-05-20T06:34:56.279Z,1000.03
2019-05-20T06:35:56.299Z,1000.08
2019-05-20T06:36:56.259Z,1000.08
2019-05-20T06:37:56.245Z,1000.08
2019-05-20T06:38:56.232Z,1000.08
2019-05-20T06:39:56.223Z,1000.10
2019-05-20T06:40:56.240Z,1000.11
2019-05-20T06:41:56.199Z,1000.09
2019-05-20T06:42:56.193Z,1000.13
2019-05-20T06:43:56.179Z,1000.11
2019-05-20T06:44:57.401Z,1000.15
2019-05-20T06:45:56.179Z,1000.20
2019-05-20T06:46:56.142Z,1000.17
2019-05-20T06:47:56.134Z,1000.19
2019-05-20T06:48:56.119Z,1000.21
2019-05-20T06:49:56.109Z,1000.23
2019-05-20T06:50:56.132Z,1000.24
2019-05-20T06:51:56.087Z,1000.26
2019-05-20T06:52:56.125Z,1000.23
2019-05-20T06:53:56.072Z,1000.22
2019-05-20T06:54:56.053Z,1000.22
2019-05-20T06:55:56.068Z,1000.20
2019-05-20T06:56:56.097Z,1000.24
2019-05-20T06:57:56.020Z,1000.20
2019-05-20T06:58:56.006Z,1000.20
2019-05-20T06:59:56.000Z,1000.12
2019-05-20T07:00:56.012Z,1000.15
2019-05-20T07:01:55.976Z,1000.19
2019-05-20T07:02:55.962Z,1000.18
2019-05-20T07:03:55.957Z,1000.22
2019-05-20T07:04:55.939Z,1000.20
2019-05-20T07:05:55.954Z,1000.25
2019-05-20T07:06:55.970Z,1000.24
2019-05-20T07:07:55.906Z,1000.23
2019-05-20T07:08:55.893Z,1000.28
2019-05-20T07:09:55.882Z,1000.22
2019-05-20T07:10:55.894Z,1000.25
2019-05-20T07:11:55.862Z,1000.25
2019-05-20T07:12:55.848Z,1000.24
2019-05-20T07:13:55.836Z,1000.27
2019-05-20T07:14:55.834Z,1000.27
2019-05-20T07:15:55.842Z,1000.26
2019-05-20T07:16:55.806Z,1000.27
2019-05-20T07:17:55.796Z,1000.29
2019-05-20T07:18:55.781Z,1000.24
2019-05-20T07:19:55.769Z,1000.24
2019-05-20T07:20:55.759Z,1000.27
2019-05-20T07:21:55.771Z,1000.32
2019-05-20T07:22:56.837Z,1000.28
2019-05-20T07:23:55.727Z,1000.29
2019-05-20T07:24:55.712Z,1000.29
2019-05-20T07:25:55.702Z,1000.27
2019-05-20T07:26:55.714Z,1000.27
2019-05-20T07:27:55.679Z,1000.33
2019-05-20T07:28:55.696Z,1000.28
2019-05-20T07:29:55.654Z,1000.29
2019-05-20T07:30:55.648Z,1000.35
2019-05-20T07:31:55.658Z,1000.35
2019-05-20T07:32:55.622Z,1000.31
2019-05-20T07:33:55.618Z,1000.33
2019-05-20T07:34:55.604Z,1000.31
2019-05-20T07:35:55.587Z,1000.25
2019-05-20T07:37:03.418Z,1000.26
2019-05-20T07:37:56.593Z,1000.24
2019-05-20T07:38:55.554Z,1000.20
2019-05-20T07:39:55.543Z,1000.23
2019-05-20T07:40:55.534Z,1000.16
2019-05-20T07:41:55.544Z,1000.16
2019-05-20T07:42:55.517Z,1000.13
2019-05-20T07:43:55.511Z,1000.16
2019-05-20T07:44:55.490Z,1000.17
2019-05-20T07:45:55.475Z,1000.11
2019-05-20T07:46:55.491Z,1000.16
2019-05-20T07:47:55.467Z,1000.19
2019-05-20T07:48:55.521Z,1000.19
2019-05-20T07:49:55.468Z,1000.22
2019-05-20T07:50:55.416Z,1000.26
2019-05-20T07:51:55.493Z,1000.31
2019-05-20T07:52:55.395Z,1000.34
2019-05-20T07:53:55.409Z,1000.34
2019-05-20T07:54:55.372Z,1000.32
2019-05-20T07:55:55.370Z,1000.34
2019-05-20T07:56:55.377Z,1000.32
2019-05-20T07:57:55.338Z,1000.36
2019-05-20T07:58:55.326Z,1000.38
2019-05-20T07:59:55.317Z,1000.35
2019-05-20T08:00:55.321Z,1000.39
2019-05-20T08:01:55.334Z,1000.44
2019-05-20T08:02:55.286Z,1000.43
2019-05-20T08:03:55.271Z,1000.44
2019-05-20T08:04:55.267Z,1000.51
2019-05-20T08:05:55.249Z,1000.46
2019-05-20T08:06:55.263Z,1000.48
2019-05-20T08:07:55.231Z,1000.51
2019-05-20T08:08:55.212Z,1000.51
2019-05-20T08:09:55.202Z,1000.48
2019-05-20T08:10:55.192Z,1000.49
2019-05-20T08:11:55.180Z,1000.46
2019-05-20T08:12:55.198Z,1000.47
2019-05-20T08:13:55.159Z,1000.47
2019-05-20T08:14:55.157Z,1000.51
2019-05-20T08:15:55.135Z,1000.49
2019-05-20T08:16:55.123Z,1000.54
2019-05-20T08:17:55.141Z,1000.54
2019-05-20T08:18:55.105Z,1000.58
2019-05-20T08:19:55.094Z,1000.58
2019-05-20T08:20:55.081Z,1000.55
2019-05-20T08:21:55.068Z,1000.58
2019-05-20T08:22:55.083Z,1000.52
2019-05-20T08:23:55.077Z,1000.51
2019-05-20T08:24:55.048Z,1000.50
2019-05-20T08:25:55.024Z,1000.49
2019-05-20T08:26:55.012Z,1000.48
2019-05-20T08:27:55.213Z,1000.46
2019-05-20T08:28:55.015Z,1000.42
2019-05-20T08:29:54.977Z,1000.49
2019-05-20T08:30:55.062Z,1000.47
2019-05-20T08:31:54.960Z,1000.50
2019-05-20T08:32:54.968Z,1000.49
2019-05-20T08:33:54.970Z,1000.47
2019-05-20T08:34:54.919Z,1000.47
2019-05-20T08:35:54.909Z,1000.48
2019-05-20T08:36:54.898Z,1000.46
2019-05-20T08:37:54.912Z,1000.42
2019-05-20T08:38:54.873Z,1000.44
2019-05-20T08:39:54.863Z,1000.46
2019-05-20T08:40:54.852Z,1000.43
2019-05-20T08:41:54.842Z,1000.46
2019-05-20T08:42:54.854Z,1000.45
2019-05-20T08:43:54.817Z,1000.47
2019-05-20T08:44:54.839Z,1000.45
2019-05-20T08:45:54.795Z,1000.44
2019-05-20T08:46:54.783Z,1000.44
2019-05-20T08:47:54.798Z,1000.47
2019-05-20T08:48:54.762Z,1000.41
2019-05-20T08:49:54.894Z,1000.45
2019-05-20T08:50:54.737Z,1000.51
2019-05-20T08:51:54.726Z,1000.48
2019-05-20T08:52:54.743Z,1000.48
2019-05-20T08:53:54.705Z,1000.52
2019-05-20T08:54:54.708Z,1000.51
2019-05-20T08:55:54.691Z,1000.53
2019-05-20T08:56:54.685Z,1000.51
2019-05-20T08:57:54.701Z,1000.53
2019-05-20T08:58:54.650Z,1000.58
2019-05-20T08:59:54.636Z,1000.60
2019-05-20T09:00:54.654Z,1000.59
2019-05-20T09:01:54.617Z,1000.62
2019-05-20T09:02:54.605Z,1000.61
2019-05-20T09:03:54.621Z,1000.64
2019-05-20T09:04:54.580Z,1000.66
2019-05-20T09:05:54.569Z,1000.66
2019-05-20T09:06:54.563Z,1000.67
2019-05-20T09:08:02.873Z,1000.76
2019-05-20T09:08:55.557Z,1000.71
2019-05-20T09:09:54.523Z,1000.77
2019-05-20T09:10:54.518Z,1000.67
2019-05-20T09:11:54.500Z,1000.81
2019-05-20T09:12:54.488Z,1000.76
2019-05-20T09:13:54.504Z,1000.79
2019-05-20T09:14:54.468Z,1000.81
2019-05-20T09:15:54.456Z,1000.81
2019-05-20T09:16:54.452Z,1000.83
2019-05-20T09:17:54.438Z,1000.86
2019-05-20T09:18:54.450Z,1000.84
2019-05-20T09:19:54.419Z,1000.82
2019-05-20T09:20:54.398Z,1000.84
2019-05-20T09:21:54.387Z,1000.86
2019-05-20T09:22:54.469Z,1000.84
2019-05-20T09:23:54.438Z,1000.87
2019-05-20T09:24:54.440Z,1000.88
2019-05-20T09:25:54.394Z,1000.84
2019-05-20T09:26:54.391Z,1000.85
2019-05-20T09:27:54.325Z,1000.82
2019-05-20T09:28:54.331Z,1000.83
2019-05-20T09:29:54.313Z,1000.84
2019-05-20T09:30:54.288Z,1000.83
2019-05-20T09:31:54.273Z,1000.88
2019-05-20T09:32:54.261Z,1000.82
2019-05-20T09:33:54.279Z,1000.85
2019-05-20T09:34:54.238Z,1000.86
2019-05-20T09:35:54.232Z,1000.88
2019-05-20T09:36:54.217Z,1000.90
2019-05-20T09:37:54.207Z,1000.84
2019-05-20T09:38:54.227Z,1000.87
2019-05-20T09:39:54.201Z,1000.80
2019-05-20T09:40:54.177Z,1000.79
2019-05-20T09:41:54.165Z,1000.78
2019-05-20T09:42:54.149Z,1000.76
2019-05-20T09:43:54.163Z,1000.77
2019-05-20T09:44:54.128Z,1000.74
2019-05-20T09:46:06.273Z,1000.75
2019-05-20T09:46:55.109Z,1000.77
2019-05-20T09:47:54.092Z,1000.77
2019-05-20T09:48:54.114Z,1000.79
2019-05-20T09:49:54.070Z,1000.82
2019-05-20T09:50:54.058Z,1000.84
2019-05-20T09:51:54.059Z,1000.83
2019-05-20T09:52:54.045Z,1000.79
2019-05-20T09:53:54.052Z,1000.84
2019-05-20T09:54:54.013Z,1000.83
2019-05-20T09:55:54.015Z,1000.79
2019-05-20T09:56:54.013Z,1000.79
2019-05-20T09:57:53.978Z,1000.84
2019-05-20T09:58:53.998Z,1000.82
2019-05-20T09:59:53.959Z,1000.81
2019-05-20T10:00:53.947Z,1000.78
2019-05-20T10:01:53.933Z,1000.85
2019-05-20T10:02:53.923Z,1000.84
2019-05-20T10:03:53.922Z,1000.86
2019-05-20T10:04:53.928Z,1000.93
2019-05-20T10:05:53.889Z,1000.87
2019-05-20T10:06:53.913Z,1000.87
2019-05-20T10:07:53.868Z,1000.90
2019-05-20T10:08:53.854Z,1000.90
2019-05-20T10:09:53.877Z,1000.92
2019-05-20T10:10:53.832Z,1000.91
2019-05-20T10:11:53.819Z,1000.90
2019-05-20T10:12:53.843Z,1000.89
2019-05-20T10:13:53.798Z,1000.89
2019-05-20T10:14:53.818Z,1000.89
2019-05-20T10:15:53.780Z,1000.89
2019-05-20T10:16:53.763Z,1000.91
2019-05-20T10:17:53.756Z,1000.95
2019-05-20T10:18:55.446Z,1000.93
2019-05-20T10:19:53.755Z,1000.95
2019-05-20T10:20:53.725Z,1000.91
2019-05-20T10:21:53.713Z,1000.94
2019-05-20T10:22:53.780Z,1000.92
2019-05-20T10:23:53.683Z,1000.96
2019-05-20T10:24:53.697Z,1001.01
2019-05-20T10:25:53.662Z,1000.99
2019-05-20T10:26:53.651Z,1001.04
2019-05-20T10:27:57.315Z,1001.03
2019-05-20T10:28:53.631Z,1001.02
2019-05-20T10:29:53.640Z,1001.05
2019-05-20T10:30:53.617Z,1001.07
2019-05-20T10:31:53.593Z,1001.00
2019-05-20T10:32:53.585Z,1001.00
2019-05-20T10:33:53.574Z,1000.96
2019-05-20T10:34:53.599Z,1000.97
2019-05-20T10:35:53.554Z,1000.94
2019-05-20T10:36:53.539Z,1000.94
2019-05-20T10:37:53.526Z,1000.92
2019-05-20T10:38:59.057Z,1000.92
2019-05-20T10:39:54.506Z,1000.93
2019-05-20T10:40:53.529Z,1000.93
2019-05-20T10:41:53.479Z,1000.93
2019-05-20T10:42:53.474Z,1000.95
2019-05-20T10:43:53.457Z,1000.96
2019-05-20T10:44:53.448Z,1000.98
2019-05-20T10:45:53.462Z,1000.96
2019-05-20T10:46:53.423Z,1001.01
2019-05-20T10:47:53.412Z,1001.05
2019-05-20T10:48:53.405Z,1000.99
2019-05-20T10:49:53.391Z,1001.04
2019-05-20T10:50:53.405Z,1001.03
2019-05-20T10:51:53.367Z,1001.01
2019-05-20T10:52:53.356Z,1000.98
2019-05-20T10:53:53.343Z,1001.04
2019-05-20T10:54:53.331Z,1001.01
2019-05-20T10:55:53.345Z,1001.08
2019-05-20T10:56:53.309Z,1001.07
2019-05-20T10:57:53.298Z,1001.04
2019-05-20T10:58:53.287Z,1001.02
2019-05-20T10:59:53.276Z,1001.07
2019-05-20T11:01:02.523Z,1001.10
2019-05-20T11:01:54.252Z,1001.09
2019-05-20T11:02:53.241Z,1001.05
2019-05-20T11:03:53.238Z,1001.07
2019-05-20T11:04:53.224Z,1001.10
2019-05-20T11:05:53.254Z,1001.14
2019-05-20T11:06:53.197Z,1001.09
2019-05-20T11:07:53.218Z,1001.11
2019-05-20T11:08:53.174Z,1001.07
2019-05-20T11:09:53.163Z,1001.16
2019-05-20T11:10:53.427Z,1001.10
2019-05-20T11:11:53.141Z,1001.15
2019-05-20T11:12:53.128Z,1001.08
2019-05-20T11:13:53.120Z,1001.12
2019-05-20T11:14:53.168Z,1001.15
2019-05-20T11:15:53.140Z,1001.13
2019-05-20T11:16:53.096Z,1001.14
2019-05-20T11:17:53.074Z,1001.14
2019-05-20T11:18:53.062Z,1001.14
2019-05-20T11:19:53.049Z,1001.16
2019-05-20T11:20:53.061Z,1001.16
2019-05-20T11:21:53.027Z,1001.14
2019-05-20T11:22:53.017Z,1001.23
2019-05-20T11:23:53.006Z,1001.21
2019-05-20T11:24:52.991Z,1001.17
2019-05-20T11:25:52.982Z,1001.20
2019-05-20T11:26:52.996Z,1001.22
2019-05-20T11:27:52.958Z,1001.25
2019-05-20T11:28:52.946Z,1001.23
2019-05-20T11:29:52.965Z,1001.23
2019-05-20T11:30:52.952Z,1001.18
2019-05-20T11:31:52.932Z,1001.26
2019-05-20T11:32:52.901Z,1001.23
2019-05-20T11:33:52.891Z,1001.22
2019-05-20T11:34:52.885Z,1001.24
2019-05-20T11:35:52.907Z,1001.17
2019-05-20T11:36:52.860Z,1001.23
2019-05-20T11:37:52.844Z,1001.22
2019-05-20T11:38:52.837Z,1001.24
2019-05-20T11:39:52.823Z,1001.27
2019-05-20T11:40:52.810Z,1001.24
2019-05-20T11:41:54.403Z,1001.24
2019-05-20T11:42:52.787Z,1001.21
2019-05-20T11:43:52.775Z,1001.25
2019-05-20T11:44:52.767Z,1001.22
2019-05-20T11:45:52.754Z,1001.28
2019-05-20T11:46:52.767Z,1001.29
2019-05-20T11:47:52.739Z,1001.24
2019-05-20T11:48:52.724Z,1001.25
2019-05-20T11:49:52.713Z,1001.37
2019-05-20T11:50:52.700Z,1001.22
2019-05-20T11:51:52.712Z,1001.25
2019-05-20T11:52:52.674Z,1001.31
2019-05-20T11:53:52.663Z,1001.27
2019-05-20T11:54:52.650Z,1001.26
2019-05-20T11:55:52.640Z,1001.23
2019-05-20T11:56:52.655Z,1001.27
2019-05-20T11:57:52.617Z,1001.30
2019-05-20T11:58:52.606Z,1001.29
2019-05-20T11:59:52.601Z,1001.33
2019-05-20T12:00:52.747Z,1001.25
2019-05-20T12:01:52.596Z,1001.30
2019-05-20T12:02:52.565Z,1001.33
2019-05-20T12:03:52.636Z,1001.25
2019-05-20T12:04:52.538Z,1001.26
2019-05-20T12:05:52.544Z,1001.30
2019-05-20T12:06:52.541Z,1001.27
2019-05-20T12:07:52.505Z,1001.28
2019-05-20T12:08:52.492Z,1001.33
2019-05-20T12:09:52.481Z,1001.24
2019-05-20T12:10:52.470Z,1001.32
2019-05-20T12:11:52.487Z,1001.34
2019-05-20T12:12:52.446Z,1001.33
2019-05-20T12:13:52.498Z,1001.39
2019-05-20T12:14:52.430Z,1001.28
2019-05-20T12:15:52.471Z,1001.34
2019-05-20T12:16:52.435Z,1001.35